Latest Weather Observations for Mackay Airport

IDQ60801

Issued at 10:32 am EST Wednesday 29 July 2015 (issued every 30 minutes, with the page automatically refreshed every 10 minutes)

About weather observations | Map of weather stations | Latest weather observations for QLD | Other Formats
Station Details ID: 033045 Name: MACKAY AERO Lat: -21.17 Lon: 149.18 Height: 4.7 m
Data from the previous 72 hours. | See also: Recent months at Mackay Airport
Date/Time
EST
Temp
°C
App
Temp
°C
Dew
Point
Rel
Hum
%
Delta-T
°C
Wind Press
QNH
hPa
Press
MSL
hPa
Rain
since 9 am
mm
Dir
 
Spd
km/h
Gust
km/h
Spd
kts
Gust
kts
29/10:30am 22.0 17.0 14.1 61 4.6 SE 33 44 18 24 1026.7 1026.7 0.0
29/10:00am 21.7 17.0 14.4 63 4.3 SSE 32 44 17 24 1026.9 1026.9 0.0
29/09:30am 20.6 15.5 13.8 65 3.9 SSE 33 44 18 24 1026.9 1026.9 0.0
29/09:00am 20.1 16.7 13.6 66 3.7 SSE 24 35 13 19 1026.8 1026.8 0.0
29/08:30am 19.1 15.1 13.1 68 3.4 SSE 26 32 14 17 1026.7 1026.7 0.0
29/08:00am 18.5 15.5 12.7 69 3.2 SSE 20 30 11 16 1026.5 1026.5 0.0
29/07:30am 17.8 14.9 12.9 73 2.7 SSE 20 24 11 13 1026.2 1026.2 0.0
29/07:00am 16.9 15.0 13.0 78 2.2 S 15 20 8 11 1025.9 1025.9 0.0
29/06:30am 17.2 15.2 12.7 75 2.5 S 15 19 8 10 1025.8 1025.8 0.0
29/06:00am 17.7 15.5 13.2 75 2.5 SSE 17 22 9 12 1025.5 1025.5 0.0
29/05:30am 17.8 15.3 13.5 76 2.4 SSE 19 28 10 15 1025.4 1025.4 0.0
29/05:00am 17.8 15.1 13.5 76 2.4 SSE 20 28 11 15 1024.9 1024.9 0.0
29/04:30am 17.7 14.7 13.6 77 2.3 SSE 22 28 12 15 1024.7 1024.7 0.0
29/04:00am 17.6 14.6 13.7 78 2.2 SSE 22 28 12 15 1024.7 1024.7 0.0
29/03:30am 17.3 14.6 13.4 78 2.2 SSE 20 32 11 17 1024.8 1024.8 0.0
29/03:00am 17.1 13.9 13.2 78 2.2 SSE 22 28 12 15 1024.9 1024.9 0.0
29/02:30am 17.4 14.6 13.1 76 2.4 SSE 20 30 11 16 1024.9 1024.9 0.0
29/02:00am 17.8 14.7 13.3 75 2.5 SSE 22 28 12 15 1025.0 1025.0 0.0
29/01:30am 17.1 15.5 14.0 82 1.8 S 15 19 8 10 1025.2 1025.2 0.0
29/01:00am 15.7 14.0 13.5 87 1.2 SSW 15 19 8 10 1025.4 1025.4 0.0
29/12:30am 15.6 14.2 13.3 86 1.3 SSW 13 15 7 8 1025.6 1025.6 0.0
 
Date/Time
EST
Temp
°C
App
Temp
°C
Dew
Point
Rel
Hum
%
Delta-T
°C
Wind Press
QNH
hPa
Press
MSL
hPa
Rain
since 9 am
mm
Dir
 
Spd
km/h
Gust
km/h
Spd
kts
Gust
kts
28/11:00pm 15.4 13.8 11.6 78 2.0 S 11 13 6 7 1025.7 1025.7 0.0
28/10:30pm 15.5 14.1 10.9 74 2.4 S 9 13 5 7 1026.1 1026.1 0.0
28/10:00pm 16.0 14.2 11.0 72 2.7 S 11 13 6 7 1026.2 1026.2 0.0
28/09:30pm 15.7 14.0 11.1 74 2.5 SSW 11 13 6 7 1026.2 1026.2 0.0
28/09:00pm 16.8 15.1 11.3 70 3.0 S 11 17 6 9 1026.1 1026.1 0.0
28/08:30pm 17.4 15.0 10.1 62 3.8 S 13 17 7 9 1026.1 1026.1 0.0
28/08:00pm 18.8 16.2 10.6 59 4.4 SSE 15 20 8 11 1025.9 1025.9 0.0
28/07:30pm 19.4 15.8 9.9 54 5.1 SSE 19 24 10 13 1025.7 1025.7 0.0
28/07:00pm 19.6 16.5 10.3 55 5.0 SSE 17 24 9 13 1025.5 1025.5 0.0
28/06:30pm 19.5 15.9 9.7 53 5.2 SSE 19 30 10 16 1025.2 1025.2 0.0
28/06:00pm 19.4 14.2 9.0 51 5.4 SSE 26 35 14 19 1024.8 1024.8 0.0
28/05:30pm 19.6 15.2 10.3 55 5.0 SE 24 33 13 18 1024.5 1024.5 0.0
28/05:00pm 20.1 14.8 9.9 52 5.4 SE 28 37 15 20 1024.1 1024.1 0.0
28/04:30pm 20.7 15.1 10.2 51 5.7 SE 30 39 16 21 1023.8 1023.8 0.0
28/04:00pm 21.2 15.0 10.1 49 6.0 SE 33 41 18 22 1023.5 1023.5 0.0
28/03:30pm 21.7 16.2 11.7 53 5.6 SE 32 39 17 21 1023.3 1023.3 0.0
28/03:00pm 22.4 16.2 11.5 50 6.1 SE 35 43 19 23 1023.3 1023.3 0.0
28/02:30pm 22.3 16.7 11.4 50 6.1 SE 32 41 17 22 1023.3 1023.3 0.0
28/02:00pm 21.8 15.8 10.0 47 6.4 SE 32 41 17 22 1023.5 1023.5 0.0
28/01:30pm 22.0 16.3 11.1 50 6.0 SE 32 39 17 21 1023.9 1023.9 0.0
28/01:00pm 22.3 16.9 10.8 48 6.3 ESE 30 39 16 21 1024.3 1024.3 0.0
28/12:30pm 21.1 15.1 10.0 49 6.0 SE 32 39 17 21 1024.7 1024.7 0.0
28/12:00pm 21.9 15.2 7.3 39 7.5 SE 32 39 17 21 1025.1 1025.1 0.0
28/11:30am 22.2 16.6 8.7 42 7.2 SE 28 35 15 19 1025.4 1025.4 0.0
28/11:00am 22.4 15.7 7.4 38 7.7 SE 32 39 17 21 1025.8 1025.8 0.0
28/10:30am 22.9 17.1 7.8 38 7.9 SE 28 37 15 20 1026.0 1026.0 0.0
28/10:00am 21.7 16.2 7.5 40 7.3 SSE 26 35 14 19 1026.1 1026.1 0.0
28/09:30am 20.4 14.5 7.7 44 6.5 SSE 28 37 15 20 1025.8 1025.8 0.0
28/09:00am 19.4 13.9 7.5 46 6.0 SSE 26 33 14 18 1025.7 1025.7 0.0
28/08:30am 18.7 14.6 8.7 52 5.2 SSE 20 28 11 15 1025.5 1025.5 0.0
28/08:00am 18.4 13.4 8.1 51 5.2 SSE 24 30 13 16 1025.0 1025.0 0.0
28/07:30am 18.0 13.5 8.6 54 4.9 SSE 22 30 12 16 1024.7 1024.7 0.0
28/07:00am 17.6 13.1 8.7 56 4.6 SSE 22 30 12 16 1024.3 1024.3 0.0
28/06:30am 17.6 13.6 9.0 57 4.5 SSE 20 28 11 15 1023.9 1023.9 0.0
28/06:00am 17.7 13.7 9.1 57 4.5 SSE 20 28 11 15 1023.7 1023.7 0.0
28/05:30am 18.2 13.8 9.0 55 4.8 SSE 22 30 12 16 1023.6 1023.6 0.0
28/05:00am 18.1 15.0 10.2 60 4.2 SSE 17 22 9 12 1023.5 1023.5 0.0
28/04:30am 18.3 14.4 9.6 57 4.6 SSE 20 28 11 15 1023.3 1023.3 0.0
28/04:00am 18.9 15.0 9.4 54 5.0 SSE 20 26 11 14 1023.3 1023.3 0.0
28/03:30am 19.4 16.5 12.2 63 4.0 SSE 19 24 10 13 1023.3 1023.3 0.0
28/03:00am 19.7 19.0 17.3 86 1.5 SSE 17 20 9 11 1023.1 1023.1 0.0
28/02:30am 20.1 19.5 17.5 85 1.6 SSE 17 22 9 12 1023.0 1023.0 0.0
28/02:00am 20.3 19.4 18.2 88 1.3 SE 20 30 11 16 1023.2 1023.2 0.0
28/01:36am 20.4 18.9 18.5 89 1.2 SE 24 32 13 17 1023.3 1023.3 0.0
28/01:30am 20.5 19.1 18.8 90 1.1 SE 24 32 13 17 1023.4 1023.4 0.0
28/01:00am 20.9 20.6 19.6 92 0.8 SE 20 28 11 15 1023.6 1023.6 0.0
28/12:30am 20.9 22.0 19.6 92 0.8 SSE 13 17 7 9 1023.6 1023.6 0.0
28/12:00am 20.9 21.9 19.4 91 0.9 S 13 20 7 11 1023.8 1023.8 0.0
 
Date/Time
EST
Temp
°C
App
Temp
°C
Dew
Point
Rel
Hum
%
Delta-T
°C
Wind Press
QNH
hPa
Press
MSL
hPa
Rain
since 9 am
mm
Dir
 
Spd
km/h
Gust
km/h
Spd
kts
Gust
kts
27/11:56pm 20.9 21.9 19.4 91 1.0 S 13 20 7 11 1023.8 1023.8 0.0
27/11:30pm 20.9 21.8 19.2 90 1.1 SSE 13 19 7 10 1023.9 1023.9 0.0
27/11:18pm 20.9 21.3 19.0 89 1.2 SSE 15 19 8 10 1023.9 1023.9 0.0
27/11:00pm 21.1 20.7 19.0 88 1.3 SSE 19 26 10 14 1024.0 1024.0 0.0
27/10:45pm 21.2 20.9 19.1 88 1.3 SE 19 24 10 13 1024.2 1024.2 0.0
27/10:30pm 21.1 21.9 19.0 88 1.3 SSE 13 17 7 9 1024.1 1024.1 0.0
27/10:00pm 20.7 21.6 19.2 91 0.9 SSE 13 17 7 9 1024.1 1024.1 0.0
27/09:30pm 19.7 21.2 18.9 95 0.5 ENE 9 11 5 6 1023.8 1023.8 0.0
27/09:00pm 18.6 19.8 17.3 92 0.8 ENE 7 9 4 5 1023.6 1023.6 0.0
27/08:30pm 19.6 21.2 18.3 92 0.8 ENE 7 9 4 5 1023.3 1023.3 0.0
27/08:00pm 20.0 21.4 18.7 92 0.8 ENE 9 11 5 6 1023.0 1023.0 0.0
27/07:30pm 19.9 21.5 18.2 90 1.1 ENE 7 9 4 5 1022.7 1022.7 0.0
27/07:00pm 20.1 21.9 18.4 90 1.1 ENE 6 7 3 4 1022.2 1022.2 0.0
27/06:30pm 20.4 22.5 18.2 87 1.4 ENE 4 6 2 3 1021.7 1021.7 0.0
27/06:00pm 20.9 22.8 18.5 86 1.5 ENE 6 9 3 5 1021.2 1021.2 0.0
27/05:30pm 21.4 22.9 18.8 85 1.6 E 9 13 5 7 1020.8 1020.8 0.0
27/05:00pm 22.1 22.5 18.9 82 2.0 E 15 20 8 11 1020.6 1020.6 0.0
27/04:30pm 22.6 22.4 18.6 78 2.5 E 17 20 9 11 1020.2 1020.2 0.0
27/04:00pm 23.3 23.2 18.8 76 2.8 E 17 20 9 11 1020.0 1020.0 0.0
27/03:30pm 23.7 22.8 18.1 71 3.5 E 20 24 11 13 1019.7 1019.7 0.0
27/03:00pm 24.1 23.7 19.0 73 3.2 E 19 24 10 13 1019.8 1019.8 0.0
27/02:30pm 23.7 22.5 19.2 76 2.9 E 24 28 13 15 1020.0 1020.0 0.0
27/02:00pm 23.0 21.5 18.5 76 2.8 E 24 30 13 16 1020.1 1020.1 0.0
27/01:30pm 23.4 22.3 19.5 79 2.5 ESE 24 28 13 15 1020.5 1020.5 0.0
27/01:00pm 23.4 22.0 18.9 76 2.8 ESE 24 30 13 16 1020.9 1020.9 0.0
27/12:30pm 24.8 24.0 20.1 75 3.0 ESE 24 30 13 16 1021.2 1021.2 0.0
27/12:00pm 23.3 21.6 19.0 77 2.7 ESE 26 32 14 17 1021.8 1021.8 0.0
27/11:30am 23.5 21.8 19.0 76 2.9 ESE 26 33 14 18 1022.1 1022.1 0.0
27/11:00am 23.5 22.3 18.4 73 3.2 E 22 28 12 15 1022.5 1022.5 0.0
27/10:30am 24.5 24.8 18.7 70 3.7 E 15 20 8 11 1022.8 1022.8 0.0
27/10:00am 24.8 25.4 18.7 69 3.9 E 13 17 7 9 1022.9 1022.9 0.0
27/09:30am 24.1 25.5 18.7 72 3.4 ESE 9 13 5 7 1023.2 1023.2 0.0
27/09:00am 22.7 23.6 18.5 77 2.6 S 11 13 6 7 1023.2 1023.2 0.0
27/08:30am 21.8 23.2 18.6 82 2.0 SSE 9 13 5 7 1023.0 1023.0 0.0
27/08:00am 20.9 22.4 19.0 89 1.2 SSE 9 13 5 7 1023.0 1023.0 0.0
27/07:30am 19.5 20.2 18.8 96 0.4 SSE 13 17 7 9 1022.8 1022.8 0.0
27/07:00am 17.9 18.8 17.6 98 0.2 S 9 13 5 7 1022.7 1022.7 0.0
27/06:40am 17.6 18.0 17.3 98 0.2 SSW 11 15 6 8 1022.4 1022.4 0.0
27/06:30am 17.6 18.0 17.3 98 0.2 SSW 11 13 6 7 1022.4 1022.4 0.0
27/06:00am 17.3 17.2 17.0 98 0.2 SW 13 13 7 7 1021.9 1021.9 0.0
27/05:30am 17.5 18.6 17.0 97 0.3 WSW 7 9 4 5 1021.3 1021.3 0.0
27/05:00am 17.4 18.6 16.9 97 0.3 WSW 6 7 3 4 1021.0 1021.0 0.0
27/04:30am 17.9 19.3 17.4 97 0.3 WSW 6 6 3 3 1021.1 1021.1 0.0
27/04:00am 18.4 20.4 17.8 96 0.4 WSW 4 6 2 3 1021.1 1021.1 0.0
27/03:30am 18.8 20.9 18.1 96 0.4 WSW 4 6 2 3 1021.2 1021.2 0.0
27/03:21am 19.0 20.8 18.3 96 0.4 WSW 6 7 3 4 1021.3 1021.3 0.0
27/03:00am 19.3 21.6 18.6 96 0.4 WSW 4 7 2 4 1021.3 1021.3 0.0
27/02:30am 19.7 22.2 19.0 96 0.4 WSW 4 6 2 3 1021.5 1021.5 0.0
27/02:00am 19.8 21.9 19.3 97 0.3 W 7 9 4 5 1021.6 1021.6 0.0
27/01:30am 19.3 22.5 18.8 97 0.3 CALM 0 0 0 0 1021.7 1021.7 0.0
27/01:00am 19.1 22.2 18.6 97 0.3 CALM 0 0 0 0 1022.0 1022.0 0.0
27/12:59am 19.0 22.0 18.5 97 0.3 CALM 0 0 0 0 1022.0 1022.0 0.0
27/12:30am 19.2 22.3 18.7 97 0.3 CALM 0 0 0 0 1022.2 1022.2 0.0
27/12:17am 19.1 22.1 18.4 96 0.4 CALM 0 0 0 0 1022.2 1022.2 0.0
27/12:00am 19.2 21.5 18.5 96 0.4 WSW 4 7 2 4 1022.3 1022.3 0.0
 
Date/Time
EST
Temp
°C
App
Temp
°C
Dew
Point
Rel
Hum
%
Delta-T
°C
Wind Press
QNH
hPa
Press
MSL
hPa
Rain
since 9 am
mm
Dir
 
Spd
km/h
Gust
km/h
Spd
kts
Gust
kts
26/11:30pm 19.4 22.6 18.9 97 0.3 CALM 0 0 0 0 1022.4 1022.4 0.0
26/11:07pm 19.2 22.3 18.7 97 0.3 CALM 0 0 0 0 1022.4 1022.4 0.0
26/11:00pm 19.3 22.5 18.8 97 0.3 CALM 0 0 0 0 1022.4 1022.4 0.0
26/10:53pm 19.4 22.6 18.9 97 0.3 CALM 0 0 0 0 1022.4 1022.4 0.0
26/10:30pm 19.2 22.3 18.7 97 0.3 CALM 0 4 0 2 1022.6 1022.6 0.0
26/10:03pm 19.6 21.3 19.3 98 0.2 WSW 9 11 5 6 1022.6 1022.6 0.0
26/10:00pm 19.6 21.3 19.3 98 0.2 WSW 9 11 5 6 1022.7 1022.7 0.0
26/09:36pm 18.6 19.7 18.1 97 0.3 WSW 9 11 5 6 1022.6 1022.6 0.0
26/09:30pm 18.5 19.6 18.0 97 0.3 WSW 9 9 5 5 1022.5 1022.5 0.0
26/09:00pm 17.9 19.0 17.1 95 0.5 NE 7 9 4 5 1022.3 1022.3 0.0
26/08:54pm 19.0 20.6 18.3 96 0.4 NE 7 9 4 5 1022.2 1022.2 0.0
26/08:30pm 19.2 22.2 18.5 96 0.4 CALM 0 0 0 0 1021.9 1021.9 0.0
26/08:20pm 19.4 22.5 18.7 96 0.4 CALM 0 0 0 0 1021.8 1021.8 0.0
26/08:00pm 20.0 23.5 19.5 97 0.3 CALM 0 0 0 0 1021.6 1021.6 0.0
26/07:31pm 20.2 23.6 19.4 95 0.5 CALM 0 6 0 3 1021.0 1021.0 0.0
26/07:30pm 20.1 23.1 19.3 95 0.5 NE 2 6 1 3 1021.0 1021.0 0.0
26/07:00pm 20.8 23.1 19.8 94 0.6 NE 7 9 4 5 1020.6 1020.6 0.0
26/06:30pm 21.0 22.9 19.8 93 0.8 NE 9 11 5 6 1020.0 1020.0 0.0
26/06:00pm 21.4 23.0 19.9 91 1.0 NE 11 15 6 8 1019.6 1019.6 0.0
26/05:30pm 22.0 22.8 19.9 88 1.3 NE 15 17 8 9 1019.0 1019.0 0.0
26/05:00pm 22.7 23.5 19.9 84 1.8 ENE 15 19 8 10 1018.8 1018.8 0.0
26/04:30pm 23.3 23.5 20.1 82 2.1 NE 19 22 10 12 1018.3 1018.3 0.0
26/04:00pm 23.8 23.9 19.9 79 2.5 ENE 19 22 10 12 1018.0 1018.0 0.0
26/03:30pm 23.9 23.8 20.0 79 2.5 ENE 20 24 11 13 1017.9 1017.9 0.0
26/03:00pm 24.2 24.2 19.7 76 2.9 ENE 19 24 10 13 1017.8 1017.8 0.0
26/02:30pm 25.1 25.3 20.1 74 3.2 ENE 19 24 10 13 1017.9 1017.9 0.0
26/02:00pm 25.1 25.0 19.5 71 3.6 ENE 19 22 10 12 1018.4 1018.4 0.0
26/01:30pm 25.2 25.1 20.0 73 3.4 ENE 20 24 11 13 1018.7 1018.7 0.0
26/01:00pm 25.1 25.3 20.1 74 3.2 ENE 19 24 10 13 1019.2 1019.2 0.0
26/12:30pm 24.8 25.8 20.3 76 2.9 ENE 15 19 8 10 1019.8 1019.8 0.0
26/12:00pm 25.1 26.8 20.1 74 3.2 ENE 11 17 6 9 1020.4 1020.4 0.0
26/11:30am 24.0 24.7 18.9 73 3.2 ENE 13 19 7 10 1021.0 1021.0 0.0
26/11:00am 24.1 25.3 20.0 78 2.6 ENE 13 15 7 8 1021.4 1021.4 0.0

Other Formats:

Comma delimited format used in spreadsheet applications
http://www.bom.gov.au/fwo/IDQ60801/IDQ60801.95367.axf

JavaScript Object Notation format (JSON) in row-major order
http://www.bom.gov.au/fwo/IDQ60801/IDQ60801.95367.json